sensor_id;sensor_type;location;lat;lon;timestamp;P1;durP1;ratioP1;P2;durP2;ratioP2
23179;SDS011;11758;45.756;11.432;2023-10-19T00:01:58;40.00;;;20.48;;
23179;SDS011;11758;45.756;11.432;2023-10-19T00:04:27;35.70;;;20.23;;
23179;SDS011;11758;45.756;11.432;2023-10-19T00:06:57;38.08;;;20.73;;
23179;SDS011;11758;45.756;11.432;2023-10-19T00:09:23;41.05;;;20.80;;
23179;SDS011;11758;45.756;11.432;2023-10-19T00:11:51;37.13;;;21.95;;
23179;SDS011;11758;45.756;11.432;2023-10-19T00:14:20;45.80;;;23.85;;
23179;SDS011;11758;45.756;11.432;2023-10-19T00:16:46;41.42;;;21.85;;
23179;SDS011;11758;45.756;11.432;2023-10-19T00:19:18;40.60;;;20.58;;
23179;SDS011;11758;45.756;11.432;2023-10-19T00:21:47;33.20;;;18.23;;
23179;SDS011;11758;45.756;11.432;2023-10-19T00:24:20;33.85;;;18.92;;
23179;SDS011;11758;45.756;11.432;2023-10-19T00:26:48;42.05;;;21.33;;
23179;SDS011;11758;45.756;11.432;2023-10-19T00:29:18;34.38;;;19.63;;
23179;SDS011;11758;45.756;11.432;2023-10-19T00:32:10;30.55;;;17.40;;
23179;SDS011;11758;45.756;11.432;2023-10-19T00:34:39;40.55;;;21.67;;
23179;SDS011;11758;45.756;11.432;2023-10-19T00:37:06;43.15;;;22.33;;
23179;SDS011;11758;45.756;11.432;2023-10-19T00:39:36;44.92;;;23.23;;
23179;SDS011;11758;45.756;11.432;2023-10-19T00:42:08;39.55;;;20.65;;
23179;SDS011;11758;45.756;11.432;2023-10-19T00:44:34;38.53;;;20.95;;
23179;SDS011;11758;45.756;11.432;2023-10-19T00:47:07;40.38;;;20.58;;
23179;SDS011;11758;45.756;11.432;2023-10-19T00:49:44;40.50;;;20.95;;
23179;SDS011;11758;45.756;11.432;2023-10-19T00:52:12;37.05;;;19.20;;
23179;SDS011;11758;45.756;11.432;2023-10-19T00:54:45;30.98;;;18.90;;
23179;SDS011;11758;45.756;11.432;2023-10-19T00:57:11;31.50;;;18.95;;
23179;SDS011;11758;45.756;11.432;2023-10-19T00:59:38;32.38;;;19.05;;
23179;SDS011;11758;45.756;11.432;2023-10-19T01:02:09;29.70;;;17.52;;
23179;SDS011;11758;45.756;11.432;2023-10-19T01:04:44;33.60;;;17.67;;
23179;SDS011;11758;45.756;11.432;2023-10-19T01:07:15;35.22;;;18.48;;
23179;SDS011;11758;45.756;11.432;2023-10-19T01:09:47;29.38;;;16.40;;
23179;SDS011;11758;45.756;11.432;2023-10-19T01:12:13;25.92;;;15.48;;
23179;SDS011;11758;45.756;11.432;2023-10-19T01:15:01;30.00;;;17.65;;
23179;SDS011;11758;45.756;11.432;2023-10-19T01:17:31;31.65;;;17.40;;
23179;SDS011;11758;45.756;11.432;2023-10-19T01:19:59;30.30;;;17.30;;
23179;SDS011;11758;45.756;11.432;2023-10-19T01:22:30;29.75;;;17.65;;
23179;SDS011;11758;45.756;11.432;2023-10-19T01:24:56;27.00;;;16.73;;
23179;SDS011;11758;45.756;11.432;2023-10-19T01:27:24;28.00;;;16.88;;
23179;SDS011;11758;45.756;11.432;2023-10-19T01:29:50;29.52;;;16.85;;
23179;SDS011;11758;45.756;11.432;2023-10-19T01:32:25;29.33;;;15.73;;
23179;SDS011;11758;45.756;11.432;2023-10-19T01:34:54;24.50;;;13.88;;
23179;SDS011;11758;45.756;11.432;2023-10-19T01:37:20;22.42;;;12.57;;
23179;SDS011;11758;45.756;11.432;2023-10-19T01:39:46;19.23;;;12.77;;
23179;SDS011;11758;45.756;11.432;2023-10-19T01:42:13;21.42;;;13.15;;
23179;SDS011;11758;45.756;11.432;2023-10-19T01:44:39;21.50;;;13.02;;
23179;SDS011;11758;45.756;11.432;2023-10-19T01:47:05;19.50;;;12.20;;
23179;SDS011;11758;45.756;11.432;2023-10-19T01:49:31;19.70;;;12.73;;
23179;SDS011;11758;45.756;11.432;2023-10-19T01:51:58;22.48;;;13.52;;
23179;SDS011;11758;45.756;11.432;2023-10-19T01:54:25;20.77;;;13.32;;
23179;SDS011;11758;45.756;11.432;2023-10-19T01:56:51;21.98;;;12.20;;
23179;SDS011;11758;45.756;11.432;2023-10-19T01:59:28;21.88;;;13.52;;
23179;SDS011;11758;45.756;11.432;2023-10-19T02:01:56;22.20;;;12.88;;
23179;SDS011;11758;45.756;11.432;2023-10-19T02:04:22;21.73;;;12.82;;
23179;SDS011;11758;45.756;11.432;2023-10-19T02:06:50;25.33;;;13.70;;
23179;SDS011;11758;45.756;11.432;2023-10-19T02:09:17;24.15;;;14.35;;
23179;SDS011;11758;45.756;11.432;2023-10-19T02:11:49;26.17;;;15.38;;
23179;SDS011;11758;45.756;11.432;2023-10-19T02:14:18;23.40;;;14.57;;
23179;SDS011;11758;45.756;11.432;2023-10-19T02:16:48;28.95;;;15.73;;
23179;SDS011;11758;45.756;11.432;2023-10-19T02:19:18;28.70;;;14.82;;
23179;SDS011;11758;45.756;11.432;2023-10-19T02:21:45;23.58;;;13.77;;
23179;SDS011;11758;45.756;11.432;2023-10-19T02:24:13;25.38;;;15.55;;
23179;SDS011;11758;45.756;11.432;2023-10-19T02:26:40;31.38;;;16.10;;
23179;SDS011;11758;45.756;11.432;2023-10-19T02:29:06;28.00;;;16.45;;
23179;SDS011;11758;45.756;11.432;2023-10-19T02:31:38;27.15;;;16.15;;
23179;SDS011;11758;45.756;11.432;2023-10-19T02:34:06;26.85;;;14.32;;
23179;SDS011;11758;45.756;11.432;2023-10-19T02:36:37;24.35;;;15.20;;
23179;SDS011;11758;45.756;11.432;2023-10-19T02:39:05;20.85;;;12.80;;
23179;SDS011;11758;45.756;11.432;2023-10-19T02:41:35;20.58;;;12.55;;
23179;SDS011;11758;45.756;11.432;2023-10-19T02:44:07;22.42;;;13.10;;
23179;SDS011;11758;45.756;11.432;2023-10-19T02:46:34;21.77;;;11.90;;
23179;SDS011;11758;45.756;11.432;2023-10-19T02:49:04;20.25;;;12.52;;
23179;SDS011;11758;45.756;11.432;2023-10-19T02:51:35;21.27;;;13.38;;
23179;SDS011;11758;45.756;11.432;2023-10-19T02:54:01;24.23;;;13.93;;
23179;SDS011;11758;45.756;11.432;2023-10-19T02:56:28;22.42;;;14.30;;
23179;SDS011;11758;45.756;11.432;2023-10-19T02:58:59;30.38;;;16.83;;
23179;SDS011;11758;45.756;11.432;2023-10-19T03:01:31;25.33;;;15.30;;
23179;SDS011;11758;45.756;11.432;2023-10-19T03:04:01;25.73;;;15.35;;
23179;SDS011;11758;45.756;11.432;2023-10-19T03:09:23;26.50;;;15.98;;
23179;SDS011;11758;45.756;11.432;2023-10-19T03:11:52;23.27;;;13.88;;
23179;SDS011;11758;45.756;11.432;2023-10-19T03:14:24;33.30;;;16.00;;
23179;SDS011;11758;45.756;11.432;2023-10-19T03:16:51;30.35;;;14.88;;
23179;SDS011;11758;45.756;11.432;2023-10-19T03:19:19;27.95;;;16.58;;
23179;SDS011;11758;45.756;11.432;2023-10-19T03:21:46;27.48;;;15.70;;
23179;SDS011;11758;45.756;11.432;2023-10-19T03:24:15;26.95;;;15.15;;
23179;SDS011;11758;45.756;11.432;2023-10-19T03:27:00;25.48;;;15.07;;
23179;SDS011;11758;45.756;11.432;2023-10-19T03:29:26;23.67;;;15.07;;
23179;SDS011;11758;45.756;11.432;2023-10-19T03:32:03;27.50;;;15.25;;
23179;SDS011;11758;45.756;11.432;2023-10-19T03:34:30;29.25;;;15.60;;
23179;SDS011;11758;45.756;11.432;2023-10-19T03:36:57;23.33;;;14.00;;
23179;SDS011;11758;45.756;11.432;2023-10-19T03:39:32;21.25;;;13.32;;
23179;SDS011;11758;45.756;11.432;2023-10-19T03:42:03;24.20;;;14.30;;
23179;SDS011;11758;45.756;11.432;2023-10-19T03:44:31;24.25;;;14.75;;
23179;SDS011;11758;45.756;11.432;2023-10-19T03:47:21;22.58;;;13.75;;
23179;SDS011;11758;45.756;11.432;2023-10-19T03:49:52;31.50;;;14.90;;
23179;SDS011;11758;45.756;11.432;2023-10-19T03:52:18;21.95;;;14.25;;
23179;SDS011;11758;45.756;11.432;2023-10-19T03:54:44;28.10;;;14.95;;
23179;SDS011;11758;45.756;11.432;2023-10-19T03:57:12;24.75;;;15.07;;
23179;SDS011;11758;45.756;11.432;2023-10-19T03:59:45;21.83;;;13.38;;
23179;SDS011;11758;45.756;11.432;2023-10-19T04:02:15;21.02;;;12.68;;
23179;SDS011;11758;45.756;11.432;2023-10-19T04:04:45;23.70;;;14.07;;
23179;SDS011;11758;45.756;11.432;2023-10-19T04:07:13;22.40;;;13.20;;
23179;SDS011;11758;45.756;11.432;2023-10-19T04:09:48;20.60;;;13.60;;
23179;SDS011;11758;45.756;11.432;2023-10-19T04:12:34;24.75;;;14.05;;
23179;SDS011;11758;45.756;11.432;2023-10-19T04:15:01;22.67;;;13.35;;
23179;SDS011;11758;45.756;11.432;2023-10-19T04:17:44;21.90;;;13.65;;
23179;SDS011;11758;45.756;11.432;2023-10-19T04:20:11;22.88;;;13.45;;
23179;SDS011;11758;45.756;11.432;2023-10-19T04:22:40;22.30;;;13.98;;
23179;SDS011;11758;45.756;11.432;2023-10-19T04:25:06;18.80;;;12.32;;
23179;SDS011;11758;45.756;11.432;2023-10-19T04:27:33;27.38;;;13.57;;
23179;SDS011;11758;45.756;11.432;2023-10-19T04:30:01;25.92;;;12.77;;
23179;SDS011;11758;45.756;11.432;2023-10-19T04:32:27;27.77;;;13.48;;
23179;SDS011;11758;45.756;11.432;2023-10-19T04:34:53;22.55;;;13.30;;
23179;SDS011;11758;45.756;11.432;2023-10-19T04:37:20;22.63;;;14.25;;
23179;SDS011;11758;45.756;11.432;2023-10-19T04:39:49;23.83;;;13.82;;
23179;SDS011;11758;45.756;11.432;2023-10-19T04:42:15;26.13;;;15.18;;
23179;SDS011;11758;45.756;11.432;2023-10-19T04:44:41;25.38;;;14.70;;
23179;SDS011;11758;45.756;11.432;2023-10-19T04:47:07;23.65;;;13.73;;
23179;SDS011;11758;45.756;11.432;2023-10-19T04:49:33;26.88;;;15.20;;
23179;SDS011;11758;45.756;11.432;2023-10-19T04:52:00;23.98;;;14.77;;
23179;SDS011;11758;45.756;11.432;2023-10-19T04:54:28;25.83;;;14.93;;
23179;SDS011;11758;45.756;11.432;2023-10-19T04:56:54;25.40;;;14.77;;
23179;SDS011;11758;45.756;11.432;2023-10-19T04:59:20;25.73;;;14.68;;
23179;SDS011;11758;45.756;11.432;2023-10-19T05:01:46;24.80;;;14.55;;
23179;SDS011;11758;45.756;11.432;2023-10-19T05:04:15;23.52;;;14.75;;
23179;SDS011;11758;45.756;11.432;2023-10-19T05:06:42;26.88;;;13.88;;
23179;SDS011;11758;45.756;11.432;2023-10-19T05:09:09;25.13;;;15.00;;
23179;SDS011;11758;45.756;11.432;2023-10-19T05:11:37;24.52;;;14.90;;
23179;SDS011;11758;45.756;11.432;2023-10-19T05:14:05;23.70;;;14.52;;
23179;SDS011;11758;45.756;11.432;2023-10-19T05:16:32;26.20;;;15.05;;
23179;SDS011;11758;45.756;11.432;2023-10-19T05:18:58;25.15;;;14.95;;
23179;SDS011;11758;45.756;11.432;2023-10-19T05:21:24;26.42;;;15.73;;
23179;SDS011;11758;45.756;11.432;2023-10-19T05:23:51;25.77;;;14.63;;
23179;SDS011;11758;45.756;11.432;2023-10-19T05:26:17;24.80;;;14.90;;
23179;SDS011;11758;45.756;11.432;2023-10-19T05:28:43;27.17;;;14.95;;
23179;SDS011;11758;45.756;11.432;2023-10-19T05:31:09;25.40;;;15.32;;
23179;SDS011;11758;45.756;11.432;2023-10-19T05:33:37;23.63;;;14.63;;
23179;SDS011;11758;45.756;11.432;2023-10-19T05:36:03;28.98;;;16.27;;
23179;SDS011;11758;45.756;11.432;2023-10-19T05:38:30;25.02;;;15.85;;
23179;SDS011;11758;45.756;11.432;2023-10-19T05:40:57;25.50;;;15.63;;
23179;SDS011;11758;45.756;11.432;2023-10-19T05:43:26;26.45;;;15.63;;
23179;SDS011;11758;45.756;11.432;2023-10-19T05:45:53;29.70;;;15.80;;
23179;SDS011;11758;45.756;11.432;2023-10-19T05:48:19;31.05;;;17.40;;
23179;SDS011;11758;45.756;11.432;2023-10-19T05:50:45;31.58;;;17.42;;
23179;SDS011;11758;45.756;11.432;2023-10-19T05:53:12;28.40;;;15.85;;
23179;SDS011;11758;45.756;11.432;2023-10-19T05:55:38;30.98;;;16.92;;
23179;SDS011;11758;45.756;11.432;2023-10-19T05:58:05;25.02;;;15.02;;
23179;SDS011;11758;45.756;11.432;2023-10-19T06:00:31;35.38;;;18.30;;
23179;SDS011;11758;45.756;11.432;2023-10-19T06:02:57;34.58;;;17.88;;
23179;SDS011;11758;45.756;11.432;2023-10-19T06:05:24;28.80;;;16.50;;
23179;SDS011;11758;45.756;11.432;2023-10-19T06:07:50;26.25;;;15.00;;
23179;SDS011;11758;45.756;11.432;2023-10-19T06:10:18;28.73;;;15.88;;
23179;SDS011;11758;45.756;11.432;2023-10-19T06:12:45;29.75;;;16.48;;
23179;SDS011;11758;45.756;11.432;2023-10-19T06:15:12;29.60;;;16.27;;
23179;SDS011;11758;45.756;11.432;2023-10-19T06:17:42;30.90;;;16.95;;
23179;SDS011;11758;45.756;11.432;2023-10-19T06:20:08;29.73;;;17.17;;
23179;SDS011;11758;45.756;11.432;2023-10-19T06:22:47;35.22;;;18.50;;
23179;SDS011;11758;45.756;11.432;2023-10-19T06:25:17;31.13;;;16.05;;
23179;SDS011;11758;45.756;11.432;2023-10-19T06:27:43;34.22;;;19.30;;
23179;SDS011;11758;45.756;11.432;2023-10-19T06:30:10;22.30;;;15.10;;
23179;SDS011;11758;45.756;11.432;2023-10-19T06:32:36;25.25;;;15.32;;
23179;SDS011;11758;45.756;11.432;2023-10-19T06:35:03;38.92;;;20.05;;
23179;SDS011;11758;45.756;11.432;2023-10-19T06:37:29;35.88;;;23.45;;
23179;SDS011;11758;45.756;11.432;2023-10-19T06:39:55;42.60;;;26.67;;
23179;SDS011;11758;45.756;11.432;2023-10-19T06:42:21;32.97;;;19.23;;
23179;SDS011;11758;45.756;11.432;2023-10-19T06:44:47;29.77;;;17.38;;
23179;SDS011;11758;45.756;11.432;2023-10-19T06:47:18;28.67;;;18.08;;
23179;SDS011;11758;45.756;11.432;2023-10-19T06:49:45;28.50;;;17.92;;
23179;SDS011;11758;45.756;11.432;2023-10-19T06:52:11;24.67;;;15.60;;
23179;SDS011;11758;45.756;11.432;2023-10-19T06:54:37;20.73;;;12.60;;
23179;SDS011;11758;45.756;11.432;2023-10-19T06:57:04;30.83;;;17.77;;
23179;SDS011;11758;45.756;11.432;2023-10-19T06:59:30;24.77;;;15.35;;
23179;SDS011;11758;45.756;11.432;2023-10-19T07:01:58;22.52;;;13.20;;
23179;SDS011;11758;45.756;11.432;2023-10-19T07:04:26;32.75;;;16.35;;
23179;SDS011;11758;45.756;11.432;2023-10-19T07:06:53;26.73;;;17.02;;
23179;SDS011;11758;45.756;11.432;2023-10-19T07:09:19;25.33;;;16.02;;
23179;SDS011;11758;45.756;11.432;2023-10-19T07:11:46;25.80;;;15.77;;
23179;SDS011;11758;45.756;11.432;2023-10-19T07:14:12;25.77;;;15.40;;
23179;SDS011;11758;45.756;11.432;2023-10-19T07:16:39;18.55;;;12.60;;
23179;SDS011;11758;45.756;11.432;2023-10-19T07:19:06;26.88;;;16.08;;
23179;SDS011;11758;45.756;11.432;2023-10-19T07:21:34;26.73;;;16.67;;
23179;SDS011;11758;45.756;11.432;2023-10-19T07:24:02;15.80;;;11.43;;
23179;SDS011;11758;45.756;11.432;2023-10-19T07:26:34;17.90;;;12.15;;
23179;SDS011;11758;45.756;11.432;2023-10-19T07:29:08;21.95;;;13.77;;
23179;SDS011;11758;45.756;11.432;2023-10-19T07:31:35;19.45;;;12.80;;
23179;SDS011;11758;45.756;11.432;2023-10-19T07:34:01;19.52;;;12.20;;
23179;SDS011;11758;45.756;11.432;2023-10-19T07:36:28;24.48;;;12.48;;
23179;SDS011;11758;45.756;11.432;2023-10-19T07:38:56;16.15;;;9.98;;
23179;SDS011;11758;45.756;11.432;2023-10-19T07:41:22;16.92;;;9.85;;
23179;SDS011;11758;45.756;11.432;2023-10-19T07:43:48;15.50;;;9.10;;
23179;SDS011;11758;45.756;11.432;2023-10-19T07:46:14;15.48;;;9.48;;
23179;SDS011;11758;45.756;11.432;2023-10-19T07:48:40;14.00;;;9.20;;
23179;SDS011;11758;45.756;11.432;2023-10-19T07:51:07;13.38;;;9.02;;
23179;SDS011;11758;45.756;11.432;2023-10-19T07:53:36;15.98;;;11.35;;
23179;SDS011;11758;45.756;11.432;2023-10-19T07:56:02;18.88;;;12.18;;
23179;SDS011;11758;45.756;11.432;2023-10-19T07:58:28;18.48;;;11.95;;
23179;SDS011;11758;45.756;11.432;2023-10-19T08:00:55;19.00;;;10.85;;
23179;SDS011;11758;45.756;11.432;2023-10-19T08:03:21;18.98;;;11.43;;
23179;SDS011;11758;45.756;11.432;2023-10-19T08:05:47;13.48;;;9.25;;
23179;SDS011;11758;45.756;11.432;2023-10-19T08:08:14;11.30;;;7.95;;
23179;SDS011;11758;45.756;11.432;2023-10-19T08:10:40;14.10;;;9.85;;
23179;SDS011;11758;45.756;11.432;2023-10-19T08:13:06;13.13;;;9.00;;
23179;SDS011;11758;45.756;11.432;2023-10-19T08:15:32;11.45;;;7.80;;
23179;SDS011;11758;45.756;11.432;2023-10-19T08:17:58;12.85;;;8.48;;
23179;SDS011;11758;45.756;11.432;2023-10-19T08:20:24;13.00;;;8.00;;
23179;SDS011;11758;45.756;11.432;2023-10-19T08:22:57;10.70;;;8.00;;
23179;SDS011;11758;45.756;11.432;2023-10-19T08:25:23;11.65;;;6.90;;
23179;SDS011;11758;45.756;11.432;2023-10-19T08:27:52;13.55;;;7.50;;
23179;SDS011;11758;45.756;11.432;2023-10-19T08:30:22;11.48;;;7.60;;
23179;SDS011;11758;45.756;11.432;2023-10-19T08:32:49;12.95;;;7.85;;
23179;SDS011;11758;45.756;11.432;2023-10-19T08:35:16;11.73;;;8.05;;
23179;SDS011;11758;45.756;11.432;2023-10-19T08:37:49;6.85;;;5.60;;
23179;SDS011;11758;45.756;11.432;2023-10-19T08:40:15;6.78;;;5.65;;
23179;SDS011;11758;45.756;11.432;2023-10-19T08:42:43;9.60;;;6.03;;
23179;SDS011;11758;45.756;11.432;2023-10-19T08:45:10;4.93;;;4.32;;
23179;SDS011;11758;45.756;11.432;2023-10-19T08:47:43;4.68;;;4.28;;
23179;SDS011;11758;45.756;11.432;2023-10-19T08:50:12;7.63;;;6.45;;
23179;SDS011;11758;45.756;11.432;2023-10-19T08:52:40;7.72;;;5.88;;
23179;SDS011;11758;45.756;11.432;2023-10-19T08:55:07;5.90;;;5.00;;
23179;SDS011;11758;45.756;11.432;2023-10-19T08:57:35;12.77;;;4.97;;
23179;SDS011;11758;45.756;11.432;2023-10-19T09:00:04;5.47;;;4.32;;
23179;SDS011;11758;45.756;11.432;2023-10-19T09:02:31;9.38;;;5.10;;
23179;SDS011;11758;45.756;11.432;2023-10-19T09:04:58;5.10;;;4.70;;
23179;SDS011;11758;45.756;11.432;2023-10-19T09:07:25;5.43;;;4.88;;
23179;SDS011;11758;45.756;11.432;2023-10-19T09:09:56;6.70;;;5.18;;
23179;SDS011;11758;45.756;11.432;2023-10-19T09:12:22;8.77;;;5.88;;
23179;SDS011;11758;45.756;11.432;2023-10-19T09:14:48;12.98;;;6.38;;
23179;SDS011;11758;45.756;11.432;2023-10-19T09:17:15;8.00;;;6.68;;
23179;SDS011;11758;45.756;11.432;2023-10-19T09:19:43;10.88;;;7.88;;
23179;SDS011;11758;45.756;11.432;2023-10-19T09:22:10;20.52;;;11.68;;
23179;SDS011;11758;45.756;11.432;2023-10-19T09:24:51;9.95;;;5.35;;
23179;SDS011;11758;45.756;11.432;2023-10-19T09:27:21;12.48;;;8.18;;
23179;SDS011;11758;45.756;11.432;2023-10-19T09:29:47;13.23;;;8.27;;
23179;SDS011;11758;45.756;11.432;2023-10-19T09:32:16;16.85;;;9.32;;
23179;SDS011;11758;45.756;11.432;2023-10-19T09:34:42;11.95;;;8.10;;
23179;SDS011;11758;45.756;11.432;2023-10-19T09:37:10;17.45;;;10.73;;
23179;SDS011;11758;45.756;11.432;2023-10-19T09:39:38;16.20;;;10.32;;
23179;SDS011;11758;45.756;11.432;2023-10-19T09:42:08;20.20;;;11.75;;
23179;SDS011;11758;45.756;11.432;2023-10-19T09:44:44;20.35;;;13.30;;
23179;SDS011;11758;45.756;11.432;2023-10-19T09:47:12;20.33;;;12.25;;
23179;SDS011;11758;45.756;11.432;2023-10-19T09:49:40;24.67;;;12.45;;
23179;SDS011;11758;45.756;11.432;2023-10-19T09:52:07;34.92;;;18.27;;
23179;SDS011;11758;45.756;11.432;2023-10-19T09:54:37;19.92;;;12.18;;
23179;SDS011;11758;45.756;11.432;2023-10-19T09:57:09;19.85;;;11.45;;
23179;SDS011;11758;45.756;11.432;2023-10-19T09:59:38;21.05;;;11.82;;
23179;SDS011;11758;45.756;11.432;2023-10-19T10:02:06;26.45;;;11.30;;
23179;SDS011;11758;45.756;11.432;2023-10-19T10:04:33;21.70;;;11.18;;
23179;SDS011;11758;45.756;11.432;2023-10-19T10:07:04;16.38;;;9.05;;
23179;SDS011;11758;45.756;11.432;2023-10-19T10:09:31;14.77;;;10.60;;
23179;SDS011;11758;45.756;11.432;2023-10-19T10:14:52;18.35;;;10.75;;
23179;SDS011;11758;45.756;11.432;2023-10-19T10:17:18;16.85;;;9.80;;
23179;SDS011;11758;45.756;11.432;2023-10-19T10:19:44;22.10;;;10.32;;
23179;SDS011;11758;45.756;11.432;2023-10-19T10:22:11;17.40;;;11.02;;
23179;SDS011;11758;45.756;11.432;2023-10-19T10:24:40;18.10;;;10.07;;
23179;SDS011;11758;45.756;11.432;2023-10-19T10:27:06;14.43;;;11.02;;
23179;SDS011;11758;45.756;11.432;2023-10-19T10:29:33;17.15;;;10.93;;
23179;SDS011;11758;45.756;11.432;2023-10-19T10:32:00;22.85;;;12.23;;
23179;SDS011;11758;45.756;11.432;2023-10-19T10:37:07;17.38;;;11.23;;
23179;SDS011;11758;45.756;11.432;2023-10-19T10:39:34;22.63;;;14.43;;
23179;SDS011;11758;45.756;11.432;2023-10-19T10:42:05;19.60;;;12.77;;
23179;SDS011;11758;45.756;11.432;2023-10-19T10:44:41;17.20;;;11.02;;
23179;SDS011;11758;45.756;11.432;2023-10-19T10:47:08;18.85;;;12.00;;
23179;SDS011;11758;45.756;11.432;2023-10-19T10:49:35;59.10;;;30.55;;
23179;SDS011;11758;45.756;11.432;2023-10-19T10:52:13;25.20;;;16.05;;
23179;SDS011;11758;45.756;11.432;2023-10-19T10:54:39;26.15;;;17.20;;
23179;SDS011;11758;45.756;11.432;2023-10-19T10:57:05;21.63;;;12.77;;
23179;SDS011;11758;45.756;11.432;2023-10-19T10:59:31;17.95;;;8.73;;
23179;SDS011;11758;45.756;11.432;2023-10-19T11:01:57;14.27;;;9.35;;
23179;SDS011;11758;45.756;11.432;2023-10-19T11:04:24;15.20;;;9.68;;
23179;SDS011;11758;45.756;11.432;2023-10-19T11:06:51;13.38;;;9.45;;
23179;SDS011;11758;45.756;11.432;2023-10-19T11:09:20;10.02;;;7.18;;
23179;SDS011;11758;45.756;11.432;2023-10-19T11:11:51;13.82;;;9.15;;
23179;SDS011;11758;45.756;11.432;2023-10-19T11:14:17;18.77;;;10.75;;
23179;SDS011;11758;45.756;11.432;2023-10-19T11:16:43;18.35;;;11.68;;
23179;SDS011;11758;45.756;11.432;2023-10-19T11:19:09;16.98;;;10.82;;
23179;SDS011;11758;45.756;11.432;2023-10-19T11:21:35;15.43;;;10.13;;
23179;SDS011;11758;45.756;11.432;2023-10-19T11:24:02;12.05;;;9.20;;
23179;SDS011;11758;45.756;11.432;2023-10-19T11:26:28;17.45;;;8.95;;
23179;SDS011;11758;45.756;11.432;2023-10-19T11:28:58;12.30;;;8.02;;
23179;SDS011;11758;45.756;11.432;2023-10-19T11:31:24;11.25;;;8.63;;
23179;SDS011;11758;45.756;11.432;2023-10-19T11:33:51;10.52;;;8.65;;
23179;SDS011;11758;45.756;11.432;2023-10-19T11:36:19;14.02;;;7.90;;
23179;SDS011;11758;45.756;11.432;2023-10-19T11:38:46;11.55;;;8.93;;
23179;SDS011;11758;45.756;11.432;2023-10-19T11:41:13;12.80;;;8.52;;
23179;SDS011;11758;45.756;11.432;2023-10-19T11:43:40;13.73;;;8.05;;
23179;SDS011;11758;45.756;11.432;2023-10-19T11:46:06;68.45;;;25.05;;
23179;SDS011;11758;45.756;11.432;2023-10-19T11:48:33;26.40;;;14.38;;
23179;SDS011;11758;45.756;11.432;2023-10-19T11:51:01;16.52;;;9.68;;
23179;SDS011;11758;45.756;11.432;2023-10-19T11:53:37;17.52;;;11.50;;
23179;SDS011;11758;45.756;11.432;2023-10-19T11:56:05;16.95;;;10.70;;
23179;SDS011;11758;45.756;11.432;2023-10-19T11:58:32;20.63;;;11.32;;
23179;SDS011;11758;45.756;11.432;2023-10-19T12:01:02;11.23;;;7.68;;
23179;SDS011;11758;45.756;11.432;2023-10-19T12:03:31;16.17;;;10.60;;
23179;SDS011;11758;45.756;11.432;2023-10-19T12:06:00;15.02;;;10.40;;
23179;SDS011;11758;45.756;11.432;2023-10-19T12:08:29;16.55;;;11.32;;
23179;SDS011;11758;45.756;11.432;2023-10-19T12:10:55;15.10;;;10.82;;
23179;SDS011;11758;45.756;11.432;2023-10-19T12:13:21;14.95;;;11.10;;
23179;SDS011;11758;45.756;11.432;2023-10-19T12:15:49;18.52;;;11.88;;
23179;SDS011;11758;45.756;11.432;2023-10-19T12:18:20;15.38;;;11.30;;
23179;SDS011;11758;45.756;11.432;2023-10-19T12:20:46;19.23;;;11.85;;
23179;SDS011;11758;45.756;11.432;2023-10-19T12:23:13;19.15;;;13.32;;
23179;SDS011;11758;45.756;11.432;2023-10-19T12:25:40;15.60;;;11.88;;
23179;SDS011;11758;45.756;11.432;2023-10-19T12:28:07;21.20;;;13.63;;
23179;SDS011;11758;45.756;11.432;2023-10-19T12:30:38;21.30;;;12.73;;
23179;SDS011;11758;45.756;11.432;2023-10-19T12:33:06;17.60;;;12.82;;
23179;SDS011;11758;45.756;11.432;2023-10-19T12:35:39;22.17;;;12.30;;
23179;SDS011;11758;45.756;11.432;2023-10-19T12:38:24;14.20;;;10.70;;
23179;SDS011;11758;45.756;11.432;2023-10-19T12:40:51;13.65;;;11.10;;
23179;SDS011;11758;45.756;11.432;2023-10-19T12:43:17;15.02;;;11.05;;
23179;SDS011;11758;45.756;11.432;2023-10-19T12:45:44;19.27;;;11.52;;
23179;SDS011;11758;45.756;11.432;2023-10-19T12:48:15;19.95;;;14.30;;
23179;SDS011;11758;45.756;11.432;2023-10-19T12:50:42;21.00;;;14.27;;
23179;SDS011;11758;45.756;11.432;2023-10-19T12:53:08;18.95;;;13.98;;
23179;SDS011;11758;45.756;11.432;2023-10-19T12:55:35;17.75;;;12.75;;
23179;SDS011;11758;45.756;11.432;2023-10-19T12:58:03;16.90;;;12.40;;
23179;SDS011;11758;45.756;11.432;2023-10-19T13:00:34;22.33;;;12.50;;
23179;SDS011;11758;45.756;11.432;2023-10-19T13:03:08;18.58;;;12.60;;
23179;SDS011;11758;45.756;11.432;2023-10-19T13:05:38;21.50;;;13.32;;
23179;SDS011;11758;45.756;11.432;2023-10-19T13:08:05;20.02;;;13.30;;
23179;SDS011;11758;45.756;11.432;2023-10-19T13:10:32;22.08;;;14.38;;
23179;SDS011;11758;45.756;11.432;2023-10-19T13:12:59;18.75;;;12.68;;
23179;SDS011;11758;45.756;11.432;2023-10-19T13:15:29;14.15;;;11.93;;
23179;SDS011;11758;45.756;11.432;2023-10-19T13:17:56;17.70;;;12.15;;
23179;SDS011;11758;45.756;11.432;2023-10-19T13:20:24;20.80;;;13.77;;
23179;SDS011;11758;45.756;11.432;2023-10-19T13:22:51;11.10;;;9.00;;
23179;SDS011;11758;45.756;11.432;2023-10-19T13:25:17;10.63;;;8.25;;
23179;SDS011;11758;45.756;11.432;2023-10-19T13:27:53;9.60;;;7.78;;
23179;SDS011;11758;45.756;11.432;2023-10-19T13:30:19;12.02;;;9.00;;
23179;SDS011;11758;45.756;11.432;2023-10-19T13:32:46;10.40;;;8.02;;
23179;SDS011;11758;45.756;11.432;2023-10-19T13:35:12;10.52;;;7.57;;
23179;SDS011;11758;45.756;11.432;2023-10-19T13:37:38;9.90;;;7.68;;
23179;SDS011;11758;45.756;11.432;2023-10-19T13:40:04;15.00;;;10.75;;
23179;SDS011;11758;45.756;11.432;2023-10-19T13:42:31;24.75;;;17.85;;
23179;SDS011;11758;45.756;11.432;2023-10-19T13:44:59;16.40;;;12.95;;
23179;SDS011;11758;45.756;11.432;2023-10-19T13:47:26;17.65;;;12.63;;
23179;SDS011;11758;45.756;11.432;2023-10-19T14:01:40;11.75;;;10.30;;
23179;SDS011;11758;45.756;11.432;2023-10-19T14:04:06;14.93;;;10.02;;
23179;SDS011;11758;45.756;11.432;2023-10-19T14:06:33;11.45;;;8.10;;
23179;SDS011;11758;45.756;11.432;2023-10-19T14:08:59;10.32;;;8.15;;
23179;SDS011;11758;45.756;11.432;2023-10-19T14:11:25;9.57;;;7.90;;
23179;SDS011;11758;45.756;11.432;2023-10-19T14:13:51;13.45;;;9.95;;
23179;SDS011;11758;45.756;11.432;2023-10-19T14:16:18;15.10;;;10.98;;
23179;SDS011;11758;45.756;11.432;2023-10-19T14:18:44;12.93;;;11.18;;
23179;SDS011;11758;45.756;11.432;2023-10-19T14:21:10;15.05;;;11.23;;
23179;SDS011;11758;45.756;11.432;2023-10-19T14:23:39;19.95;;;13.23;;
23179;SDS011;11758;45.756;11.432;2023-10-19T14:26:06;16.13;;;11.13;;
23179;SDS011;11758;45.756;11.432;2023-10-19T14:28:33;13.68;;;10.45;;
23179;SDS011;11758;45.756;11.432;2023-10-19T14:31:01;13.77;;;10.60;;
23179;SDS011;11758;45.756;11.432;2023-10-19T14:33:29;17.35;;;11.98;;
23179;SDS011;11758;45.756;11.432;2023-10-19T14:35:55;14.70;;;11.10;;
23179;SDS011;11758;45.756;11.432;2023-10-19T14:38:21;15.93;;;12.02;;